createdAt,value
2017-11-13T00:00:02.989Z,7.95
2017-11-13T00:02:30.625Z,5.87
2017-11-13T00:04:58.157Z,9.97
2017-11-13T00:07:25.823Z,10.97
2017-11-13T00:09:53.409Z,10.20
2017-11-13T00:12:20.925Z,5.90
2017-11-13T00:14:48.429Z,9.20
2017-11-13T00:17:16.212Z,6.17
2017-11-13T00:19:43.712Z,6.90
2017-11-13T00:22:11.212Z,10.07
2017-11-13T00:24:38.843Z,7.77
2017-11-13T00:27:06.342Z,6.10
2017-11-13T00:29:33.849Z,10.40
2017-11-13T00:32:02.173Z,5.83
2017-11-13T00:34:29.667Z,6.53
2017-11-13T00:36:57.428Z,5.27
2017-11-13T00:39:25.001Z,7.63
2017-11-13T00:41:52.698Z,5.90
2017-11-13T00:44:20.197Z,5.60
2017-11-13T00:46:47.757Z,8.00
2017-11-13T00:49:15.251Z,5.20
2017-11-13T00:51:42.760Z,8.03
2017-11-13T00:54:10.319Z,7.67
2017-11-13T00:56:37.820Z,6.50
2017-11-13T00:59:05.329Z,10.13
2017-11-13T01:01:32.857Z,5.90
2017-11-13T01:04:00.367Z,7.70
2017-11-13T01:06:27.871Z,7.07
2017-11-13T01:08:55.444Z,8.80
2017-11-13T01:11:22.967Z,5.03
2017-11-13T01:13:50.480Z,11.50
2017-11-13T01:16:18.034Z,9.52
2017-11-13T01:18:45.546Z,7.37
2017-11-13T01:21:13.077Z,8.70
2017-11-13T01:23:41.126Z,7.60
2017-11-13T01:26:08.702Z,8.17
2017-11-13T01:28:36.277Z,9.87
2017-11-13T01:31:03.910Z,10.30
2017-11-13T01:33:31.420Z,5.87
2017-11-13T01:35:59.698Z,9.20
2017-11-13T01:38:28.089Z,15.37
2017-11-13T01:40:55.643Z,8.23
2017-11-13T01:43:24.486Z,9.53
2017-11-13T01:45:52.042Z,12.17
2017-11-13T01:48:19.576Z,7.73
2017-11-13T01:50:47.077Z,8.57
2017-11-13T01:53:14.611Z,10.87
2017-11-13T01:55:42.119Z,8.00
2017-11-13T01:58:09.613Z,9.17
2017-11-13T02:00:37.937Z,5.73
2017-11-13T02:03:05.451Z,7.00
2017-11-13T02:05:32.944Z,6.93
2017-11-13T02:08:00.492Z,8.73
2017-11-13T02:10:27.998Z,7.80
2017-11-13T02:12:55.504Z,9.87
2017-11-13T02:15:23.072Z,9.20
2017-11-13T02:17:50.568Z,13.30
2017-11-13T02:20:18.837Z,12.20
2017-11-13T02:22:47.152Z,9.13
2017-11-13T02:25:14.912Z,9.97
2017-11-13T02:27:42.724Z,11.60
2017-11-13T02:30:10.391Z,8.67
2017-11-13T02:32:37.906Z,11.77
2017-11-13T02:35:05.405Z,8.00
2017-11-13T02:37:32.977Z,10.07
2017-11-13T02:40:00.498Z,9.47
2017-11-13T02:42:28.047Z,9.33
2017-11-13T02:44:55.651Z,9.77
2017-11-13T02:47:23.151Z,11.10
2017-11-13T02:49:50.653Z,10.90
2017-11-13T02:52:18.308Z,15.17
2017-11-13T02:54:45.812Z,17.70
2017-11-13T02:57:13.849Z,15.43
2017-11-13T02:59:41.391Z,13.33
2017-11-13T03:02:09.680Z,12.60
2017-11-13T03:04:37.751Z,12.87
2017-11-13T03:07:05.251Z,15.20
2017-11-13T03:09:33.078Z,11.83
2017-11-13T03:12:00.920Z,12.63
2017-11-13T03:14:28.456Z,15.47
2017-11-13T03:16:56.218Z,14.97
2017-11-13T03:19:23.785Z,9.97
2017-11-13T03:21:51.292Z,19.50
2017-11-13T03:24:18.791Z,13.30
2017-11-13T03:26:46.350Z,14.80
2017-11-13T03:29:13.847Z,15.23
2017-11-13T03:31:41.351Z,10.77
2017-11-13T03:34:08.884Z,14.97
2017-11-13T03:36:36.431Z,11.83
2017-11-13T03:39:03.940Z,8.60
2017-11-13T03:41:31.491Z,9.33
2017-11-13T03:43:59.751Z,8.10
2017-11-13T03:46:28.025Z,10.37
2017-11-13T03:48:56.349Z,13.30
2017-11-13T03:51:23.848Z,9.57
2017-11-13T03:53:51.336Z,9.40
2017-11-13T03:56:18.997Z,10.40
2017-11-13T03:58:46.504Z,10.70
2017-11-13T04:01:14.018Z,11.60
2017-11-13T04:03:41.592Z,10.40
2017-11-13T04:06:09.095Z,11.70
2017-11-13T04:08:36.604Z,11.53
2017-11-13T04:11:04.135Z,11.70
2017-11-13T04:13:31.640Z,12.63
2017-11-13T04:15:59.151Z,16.40
2017-11-13T04:18:26.691Z,11.10
2017-11-13T04:20:54.191Z,12.03
2017-11-13T04:23:21.705Z,14.73
2017-11-13T04:25:49.272Z,9.27
2017-11-13T04:28:17.132Z,15.47
2017-11-13T04:30:44.632Z,15.33
2017-11-13T04:33:12.191Z,14.40
2017-11-13T04:35:39.695Z,12.80
2017-11-13T04:38:07.199Z,14.10
2017-11-13T04:40:34.736Z,16.85
2017-11-13T04:43:02.252Z,15.00
2017-11-13T04:45:29.759Z,17.33
2017-11-13T04:47:57.312Z,17.50
2017-11-13T04:50:24.820Z,15.23
2017-11-13T04:52:52.353Z,15.20
2017-11-13T04:55:19.891Z,17.07
2017-11-13T04:57:47.509Z,19.07
2017-11-13T05:00:15.195Z,15.10
2017-11-13T05:02:42.950Z,14.00
2017-11-13T05:05:10.495Z,19.95
2017-11-13T05:07:38.387Z,9.90
2017-11-13T05:10:06.753Z,11.03
2017-11-13T05:12:34.244Z,8.70
2017-11-13T05:15:01.759Z,11.30
2017-11-13T05:17:29.333Z,11.57
2017-11-13T05:19:57.126Z,14.67
2017-11-13T05:22:24.913Z,17.70
2017-11-13T05:24:52.720Z,18.10
2017-11-13T05:27:20.504Z,19.43
2017-11-13T05:29:48.213Z,28.07
2017-11-13T05:32:16.051Z,15.03
2017-11-13T05:34:45.044Z,18.33
2017-11-13T05:37:12.547Z,17.60
2017-11-13T05:39:40.649Z,19.80
2017-11-13T05:42:08.422Z,18.50
2017-11-13T05:44:36.116Z,20.20
2017-11-13T05:47:04.598Z,19.97
2017-11-13T05:49:32.279Z,14.10
2017-11-13T05:51:59.818Z,11.40
2017-11-13T05:54:28.240Z,15.73
2017-11-13T05:56:55.736Z,14.90
2017-11-13T05:59:24.061Z,21.13
2017-11-13T06:01:51.986Z,20.30
2017-11-13T06:04:19.690Z,16.83
2017-11-13T06:06:47.385Z,24.23
2017-11-13T06:09:14.856Z,22.20
2017-11-13T06:11:42.370Z,10.90
2017-11-13T06:14:09.872Z,16.47
2017-11-13T06:16:37.711Z,22.73
2017-11-13T06:19:05.453Z,24.17
2017-11-13T06:21:32.985Z,20.80
2017-11-13T06:24:00.638Z,21.57
2017-11-13T06:26:28.261Z,20.33
2017-11-13T06:28:55.797Z,22.20
2017-11-13T06:31:23.373Z,23.87
2017-11-13T06:33:51.397Z,19.83
2017-11-13T06:36:18.902Z,14.67
2017-11-13T06:38:46.472Z,17.20
2017-11-13T06:41:13.983Z,22.77
2017-11-13T06:43:41.499Z,19.13
2017-11-13T06:46:09.064Z,28.70
2017-11-13T06:48:36.588Z,22.00
2017-11-13T06:51:04.096Z,22.30
2017-11-13T06:53:32.053Z,21.20
2017-11-13T06:56:00.410Z,21.43
2017-11-13T06:58:27.944Z,23.30
2017-11-13T07:00:55.536Z,19.60
2017-11-13T07:03:23.035Z,22.47
2017-11-13T07:05:50.852Z,23.23
2017-11-13T07:08:18.456Z,20.43
2017-11-13T07:10:45.966Z,23.43
2017-11-13T07:13:13.543Z,25.73
2017-11-13T07:15:41.060Z,21.80
2017-11-13T07:18:08.568Z,26.73
2017-11-13T07:20:36.269Z,20.80
2017-11-13T07:23:03.938Z,20.20
2017-11-13T07:25:31.459Z,18.43
2017-11-13T07:27:59.017Z,26.00
2017-11-13T07:30:26.534Z,25.77
2017-11-13T07:32:54.130Z,25.50
2017-11-13T07:35:21.693Z,25.00
2017-11-13T07:37:49.677Z,19.60
2017-11-13T07:40:17.225Z,22.40
2017-11-13T07:42:44.797Z,18.90
2017-11-13T07:45:12.296Z,26.03
2017-11-13T07:47:39.804Z,22.70
2017-11-13T07:50:07.588Z,20.77
2017-11-13T07:52:35.252Z,20.80
2017-11-13T07:55:02.954Z,17.53
2017-11-13T07:57:30.516Z,22.50
2017-11-13T07:59:58.192Z,22.63
2017-11-13T08:02:25.732Z,22.67
2017-11-13T08:04:53.284Z,20.40
2017-11-13T08:07:20.792Z,22.77
2017-11-13T08:09:49.069Z,22.70
2017-11-13T08:12:17.404Z,24.57
2017-11-13T08:14:44.919Z,13.20
2017-11-13T08:17:12.436Z,21.33
2017-11-13T08:19:40.004Z,20.07
2017-11-13T08:22:07.708Z,14.93
2017-11-13T08:24:35.208Z,22.03
2017-11-13T08:27:02.776Z,14.83
2017-11-13T08:29:30.271Z,13.23
2017-11-13T08:31:57.772Z,17.80
2017-11-13T08:34:25.334Z,19.30
2017-11-13T08:36:52.836Z,14.87
2017-11-13T08:39:20.336Z,17.37
2017-11-13T08:41:47.879Z,20.00
2017-11-13T08:44:15.384Z,13.93
2017-11-13T08:46:42.895Z,15.47
2017-11-13T08:49:10.443Z,17.23
2017-11-13T08:51:37.944Z,19.90
2017-11-13T08:54:05.448Z,14.30
2017-11-13T08:56:33.005Z,13.83
2017-11-13T08:59:00.508Z,16.50
2017-11-13T09:01:28.788Z,16.57
2017-11-13T09:03:56.387Z,12.50
2017-11-13T09:06:23.893Z,12.60
2017-11-13T09:08:51.502Z,12.33
2017-11-13T09:11:19.024Z,12.07
2017-11-13T09:13:46.528Z,13.67
2017-11-13T09:16:14.118Z,12.53
2017-11-13T09:18:41.695Z,18.50
2017-11-13T09:21:09.212Z,11.27
2017-11-13T09:23:36.777Z,9.53
2017-11-13T09:26:04.280Z,13.00
2017-11-13T09:28:31.787Z,14.87
2017-11-13T09:30:59.331Z,14.67
2017-11-13T09:33:27.728Z,18.00
2017-11-13T09:35:55.353Z,13.53
2017-11-13T09:38:22.881Z,25.60
2017-11-13T09:40:50.386Z,16.17
2017-11-13T09:43:17.939Z,10.83
2017-11-13T09:45:45.453Z,16.07
2017-11-13T09:48:12.956Z,18.37
2017-11-13T09:50:40.512Z,15.17
2017-11-13T09:53:08.025Z,19.67
2017-11-13T09:55:35.537Z,16.60
2017-11-13T09:58:03.105Z,15.87
2017-11-13T10:00:30.608Z,18.23
2017-11-13T10:02:58.113Z,15.83
2017-11-13T10:05:25.683Z,14.50
2017-11-13T10:07:53.312Z,10.93
2017-11-13T10:10:20.813Z,16.10
2017-11-13T10:12:48.374Z,18.33
2017-11-13T10:15:16.468Z,8.17
2017-11-13T10:17:43.975Z,13.67
2017-11-13T10:20:11.548Z,10.57
2017-11-13T10:22:39.050Z,11.47
2017-11-13T10:25:06.565Z,10.57
2017-11-13T10:27:34.216Z,10.87
2017-11-13T10:30:01.724Z,12.90
2017-11-13T10:32:29.224Z,9.57
2017-11-13T10:34:56.767Z,11.30
2017-11-13T10:37:24.027Z,10.87
2017-11-13T10:39:51.532Z,10.97
2017-11-13T10:42:19.545Z,12.87
2017-11-13T10:44:47.053Z,14.73
2017-11-13T10:47:14.555Z,11.87
2017-11-13T10:49:42.216Z,15.83
2017-11-13T10:52:09.717Z,13.63
2017-11-13T10:54:37.222Z,10.97
2017-11-13T10:57:04.779Z,18.30
2017-11-13T10:59:32.281Z,11.87
2017-11-13T11:01:59.792Z,18.17
2017-11-13T11:04:27.332Z,11.47
2017-11-13T11:06:54.836Z,12.03
2017-11-13T11:09:23.107Z,10.10
2017-11-13T11:11:51.459Z,11.90
2017-11-13T11:14:23.980Z,12.63
2017-11-13T11:16:57.880Z,17.73
2017-11-13T11:19:35.312Z,17.63
2017-11-13T11:22:19.580Z,12.73
2017-11-13T11:24:47.084Z,14.30
2017-11-13T11:27:17.193Z,13.63
2017-11-13T11:29:46.629Z,16.10
2017-11-13T11:32:17.977Z,13.50
2017-11-13T11:34:50.001Z,14.43
2017-11-13T11:37:20.108Z,17.40
2017-11-13T11:39:48.545Z,15.43
2017-11-13T11:42:16.119Z,13.60
2017-11-13T11:45:03.338Z,13.27
2017-11-13T11:47:41.876Z,8.80
2017-11-13T11:50:09.372Z,5.70
2017-11-13T11:52:36.877Z,11.80
2017-11-13T11:55:15.269Z,11.83
2017-11-13T11:57:42.777Z,13.83
2017-11-13T12:00:10.283Z,13.70
2017-11-13T12:02:37.935Z,13.80
2017-11-13T12:05:05.448Z,11.67
2017-11-13T12:07:33.716Z,11.00
2017-11-13T12:10:01.374Z,9.13
2017-11-13T12:12:28.876Z,11.10
2017-11-13T12:14:57.147Z,10.00
2017-11-13T12:17:25.036Z,10.07
2017-11-13T12:19:52.539Z,13.17
2017-11-13T12:22:20.040Z,14.30
2017-11-13T12:24:47.617Z,14.03
2017-11-13T12:27:15.132Z,13.37
2017-11-13T12:29:42.648Z,13.30
2017-11-13T12:32:10.200Z,13.70
2017-11-13T12:34:37.709Z,17.37
2017-11-13T12:37:05.212Z,14.93
2017-11-13T12:39:32.800Z,15.50
2017-11-13T12:42:00.076Z,14.27
2017-11-13T12:44:27.580Z,17.63
2017-11-13T12:46:55.135Z,15.77
2017-11-13T12:49:22.656Z,14.53
2017-11-13T12:51:50.163Z,11.60
2017-11-13T12:54:17.796Z,37.73
2017-11-13T12:56:45.312Z,22.63
2017-11-13T12:59:13.595Z,18.67
2017-11-13T13:01:41.172Z,18.57
2017-11-13T13:04:08.680Z,16.53
2017-11-13T13:06:36.183Z,19.90
2017-11-13T13:09:03.752Z,12.63
2017-11-13T13:11:31.256Z,15.70
2017-11-13T13:13:58.824Z,22.23
2017-11-13T13:16:26.456Z,15.80
2017-11-13T13:18:54.780Z,8.63
2017-11-13T13:21:22.338Z,9.27
2017-11-13T13:23:50.246Z,12.90
2017-11-13T13:26:17.747Z,12.37
2017-11-13T13:28:45.299Z,8.80
2017-11-13T13:31:12.808Z,19.37
2017-11-13T13:33:40.315Z,13.30
2017-11-13T13:36:07.905Z,10.40
2017-11-13T13:38:35.410Z,12.30
2017-11-13T13:41:03.695Z,9.67
2017-11-13T13:43:31.345Z,9.97
2017-11-13T13:45:58.852Z,11.47
2017-11-13T13:48:26.365Z,10.53
2017-11-13T13:50:53.925Z,11.00
2017-11-13T13:53:21.438Z,8.50
2017-11-13T13:55:48.966Z,13.10
2017-11-13T13:58:16.593Z,7.80
2017-11-13T14:00:44.088Z,6.13
2017-11-13T14:03:11.592Z,10.27
2017-11-13T14:05:39.892Z,9.90
2017-11-13T14:08:07.388Z,4.97
2017-11-13T14:10:34.892Z,11.10
2017-11-13T14:13:02.440Z,6.93
2017-11-13T14:15:29.705Z,10.30
2017-11-13T14:17:57.204Z,8.63
2017-11-13T14:20:24.748Z,12.13
2017-11-13T14:22:52.252Z,16.90
2017-11-13T14:25:19.752Z,8.00
2017-11-13T14:27:47.308Z,10.27
2017-11-13T14:30:14.812Z,14.50
2017-11-13T14:32:42.308Z,13.50
2017-11-13T14:35:09.876Z,10.37
2017-11-13T14:37:37.383Z,8.13
2017-11-13T14:40:05.008Z,5.73
2017-11-13T14:42:33.580Z,10.10
2017-11-13T14:45:01.085Z,6.13
2017-11-13T14:47:28.587Z,5.03
2017-11-13T14:49:56.148Z,5.50
2017-11-13T14:52:23.897Z,13.63
2017-11-13T14:54:51.395Z,6.50
2017-11-13T14:57:18.947Z,6.20
2017-11-13T14:59:46.448Z,8.00
2017-11-13T15:02:13.948Z,8.00
2017-11-13T15:04:41.607Z,6.80
2017-11-13T15:07:09.129Z,8.10
2017-11-13T15:09:36.642Z,7.13
2017-11-13T15:12:04.196Z,9.70
2017-11-13T15:14:31.704Z,8.43
2017-11-13T15:16:59.564Z,8.57
2017-11-13T15:19:27.079Z,6.80
2017-11-13T15:21:54.971Z,12.27
2017-11-13T15:24:23.555Z,10.13
2017-11-13T15:26:51.056Z,9.20
2017-11-13T15:29:18.555Z,10.17
2017-11-13T15:31:46.556Z,7.43
2017-11-13T15:34:14.576Z,10.93
2017-11-13T15:36:42.117Z,10.40
2017-11-13T15:39:09.687Z,12.20
2017-11-13T15:41:37.187Z,10.90
2017-11-13T15:44:04.888Z,11.53
2017-11-13T15:46:32.446Z,12.37
2017-11-13T15:48:59.943Z,14.50
2017-11-13T15:51:27.443Z,13.00
2017-11-13T15:53:55.236Z,9.87
2017-11-13T15:56:22.895Z,10.10
2017-11-13T15:58:50.394Z,8.40
2017-11-13T16:01:17.952Z,8.13
2017-11-13T16:03:45.456Z,19.27
2017-11-13T16:06:12.972Z,10.43
2017-11-13T16:08:41.084Z,9.47
2017-11-13T16:11:08.589Z,9.67
2017-11-13T16:13:36.088Z,11.70
2017-11-13T16:16:04.272Z,16.33
2017-11-13T16:18:31.776Z,14.27
2017-11-13T16:20:59.551Z,12.37
2017-11-13T16:23:27.175Z,14.73
2017-11-13T16:25:54.680Z,13.00
2017-11-13T16:28:22.947Z,18.77
2017-11-13T16:30:50.504Z,10.90
2017-11-13T16:33:18.128Z,14.50
2017-11-13T16:35:45.635Z,12.37
2017-11-13T16:38:13.351Z,14.40
2017-11-13T16:40:40.868Z,11.63
2017-11-13T16:43:08.376Z,20.33
2017-11-13T16:45:35.935Z,13.73
2017-11-13T16:48:03.473Z,13.70
2017-11-13T16:50:30.982Z,23.63
2017-11-13T16:52:59.411Z,18.47
2017-11-13T16:55:26.915Z,20.23
2017-11-13T16:57:54.425Z,17.40
2017-11-13T17:00:22.257Z,18.03
2017-11-13T17:02:49.768Z,20.60
2017-11-13T17:05:17.497Z,21.20
2017-11-13T17:07:45.068Z,18.70
2017-11-13T17:10:12.572Z,29.37
2017-11-13T17:12:40.074Z,28.20
2017-11-13T17:15:08.168Z,28.07
2017-11-13T17:17:35.980Z,23.80
2017-11-13T17:20:03.509Z,31.07
2017-11-13T17:22:31.135Z,34.70
2017-11-13T17:24:58.813Z,38.83
2017-11-13T17:27:26.323Z,34.20
2017-11-13T17:29:53.865Z,27.67
2017-11-13T17:32:21.387Z,30.80
2017-11-13T17:34:48.896Z,34.00
2017-11-13T17:37:16.462Z,25.57
2017-11-13T17:39:44.287Z,26.07
2017-11-13T17:42:11.796Z,26.83
2017-11-13T17:44:39.338Z,27.00
2017-11-13T17:47:06.860Z,26.30
2017-11-13T17:49:34.363Z,26.87
2017-11-13T17:52:01.921Z,28.17
2017-11-13T17:54:29.427Z,38.87
2017-11-13T17:56:56.932Z,26.30
2017-11-13T17:59:24.472Z,23.90
2017-11-13T18:01:51.971Z,32.40
2017-11-13T18:04:20.940Z,28.30
2017-11-13T18:06:48.483Z,25.40
2017-11-13T18:09:15.992Z,32.43
2017-11-13T18:11:44.287Z,26.90
2017-11-13T18:14:12.259Z,27.23
2017-11-13T18:16:39.764Z,21.57
2017-11-13T18:19:07.029Z,24.17
2017-11-13T18:21:34.971Z,24.03
2017-11-13T18:24:02.485Z,30.27
2017-11-13T18:26:30.000Z,25.67
2017-11-13T18:28:57.571Z,20.73
2017-11-13T18:31:25.073Z,20.67
2017-11-13T18:33:52.588Z,38.90
2017-11-13T18:36:20.136Z,28.87
2017-11-13T18:38:47.644Z,23.20
2017-11-13T18:41:15.160Z,32.77
2017-11-13T18:43:42.725Z,33.57
2017-11-13T18:46:10.239Z,23.70
2017-11-13T18:48:37.744Z,25.30
2017-11-13T18:51:05.304Z,30.73
2017-11-13T18:53:32.808Z,41.20
2017-11-13T18:56:00.322Z,28.77
2017-11-13T18:58:27.876Z,24.30
2017-11-13T19:00:55.379Z,30.63
2017-11-13T19:03:22.911Z,29.57
2017-11-13T19:05:50.476Z,28.63
2017-11-13T19:08:17.981Z,28.30
2017-11-13T19:10:45.482Z,32.23
2017-11-13T19:13:13.028Z,25.70
2017-11-13T19:15:40.536Z,21.53
2017-11-13T19:18:08.576Z,25.53
2017-11-13T19:20:36.402Z,25.77
2017-11-13T19:23:04.025Z,30.23
2017-11-13T19:25:31.543Z,22.43
2017-11-13T19:28:00.587Z,19.60
2017-11-13T19:30:28.089Z,23.07
2017-11-13T19:32:55.888Z,26.63
2017-11-13T19:35:23.444Z,26.40
2017-11-13T19:37:51.539Z,29.77
2017-11-13T19:40:19.069Z,28.60
2017-11-13T19:42:47.076Z,30.73
2017-11-13T19:45:17.853Z,20.40
2017-11-13T19:47:45.368Z,27.20
2017-11-13T19:50:13.739Z,29.83
2017-11-13T19:52:41.246Z,31.37
2017-11-13T19:55:08.755Z,27.70
2017-11-13T19:57:36.316Z,29.20
2017-11-13T20:00:03.824Z,25.40
2017-11-13T20:02:31.579Z,29.37
2017-11-13T20:04:59.092Z,29.53
2017-11-13T20:07:26.360Z,21.10
2017-11-13T20:09:53.921Z,28.00
2017-11-13T20:12:23.988Z,25.17
2017-11-13T20:14:51.500Z,24.80
2017-11-13T20:17:19.051Z,28.53
2017-11-13T20:19:46.559Z,26.20
2017-11-13T20:22:14.279Z,26.90
2017-11-13T20:24:41.903Z,28.60
2017-11-13T20:27:09.503Z,28.10
2017-11-13T20:29:37.008Z,27.93
2017-11-13T20:32:04.576Z,30.90
2017-11-13T20:37:25.896Z,31.83
2017-11-13T20:42:28.031Z,33.13
2017-11-13T20:44:56.267Z,32.43
2017-11-13T20:47:26.354Z,39.07
2017-11-13T20:49:54.525Z,29.23
2017-11-13T20:52:22.044Z,34.40
2017-11-13T20:54:49.626Z,38.83
2017-11-13T20:57:17.665Z,46.53
2017-11-13T20:59:45.565Z,42.00
2017-11-13T21:02:13.119Z,39.57
2017-11-13T21:04:40.620Z,30.97
2017-11-13T21:07:08.132Z,48.73
2017-11-13T21:09:36.200Z,27.50
2017-11-13T21:12:04.032Z,30.27
2017-11-13T21:14:31.539Z,35.23
2017-11-13T21:16:59.095Z,41.17
2017-11-13T21:19:26.865Z,41.87
2017-11-13T21:21:54.371Z,42.00
2017-11-13T21:24:22.236Z,40.17
2017-11-13T21:26:50.872Z,47.63
2017-11-13T21:29:18.384Z,35.50
2017-11-13T21:31:46.619Z,28.80
2017-11-13T21:34:14.129Z,33.50
2017-11-13T21:39:15.966Z,34.70
2017-11-13T21:41:43.473Z,30.30
2017-11-13T21:44:11.773Z,32.33
2017-11-13T21:46:39.340Z,44.50
2017-11-13T21:49:06.848Z,35.50
2017-11-13T21:51:34.367Z,44.90
2017-11-13T21:54:01.941Z,46.23
2017-11-13T21:56:29.450Z,40.17
2017-11-13T21:58:56.956Z,35.80
2017-11-13T22:01:24.500Z,40.53
2017-11-13T22:03:52.020Z,48.58
2017-11-13T22:06:19.541Z,39.03
2017-11-13T22:08:47.108Z,51.78
2017-11-13T22:11:14.611Z,47.53
2017-11-13T22:13:42.419Z,37.53
2017-11-13T22:16:09.980Z,39.43
2017-11-13T22:18:38.980Z,34.87
2017-11-13T22:21:06.536Z,32.03
2017-11-13T22:23:34.300Z,41.13
2017-11-13T22:26:01.817Z,41.10
2017-11-13T22:28:29.889Z,41.87
2017-11-13T22:30:57.521Z,42.67
2017-11-13T22:33:25.797Z,50.57
2017-11-13T22:35:54.121Z,55.00
2017-11-13T22:38:22.695Z,58.97
2017-11-13T22:40:50.465Z,46.53
2017-11-13T22:43:17.981Z,63.33
2017-11-13T22:45:45.541Z,52.63
2017-11-13T22:48:14.093Z,75.53
2017-11-13T22:50:41.613Z,48.90
2017-11-13T22:53:09.905Z,58.17
2017-11-13T22:55:37.417Z,61.17
2017-11-13T22:58:05.343Z,67.10
2017-11-13T23:00:32.989Z,55.53
2017-11-13T23:03:00.492Z,55.20
2017-11-13T23:05:28.009Z,79.73
2017-11-13T23:07:56.267Z,72.93
2017-11-13T23:10:24.543Z,91.60
2017-11-13T23:12:52.884Z,96.50
2017-11-13T23:15:20.782Z,91.37
2017-11-13T23:17:49.065Z,102.47
2017-11-13T23:20:17.245Z,118.63
2017-11-13T23:22:44.776Z,125.78
2017-11-13T23:25:13.061Z,130.37
2017-11-13T23:27:41.699Z,128.10
2017-11-13T23:30:09.217Z,122.37
2017-11-13T23:32:36.732Z,135.57
2017-11-13T23:35:04.306Z,127.07
2017-11-13T23:37:32.017Z,149.87
2017-11-13T23:39:59.573Z,134.35
2017-11-13T23:42:27.139Z,140.23
2017-11-13T23:44:54.707Z,157.30
2017-11-13T23:47:22.221Z,132.83
2017-11-13T23:49:49.800Z,113.70
2017-11-13T23:52:17.897Z,147.50
2017-11-13T23:54:45.420Z,150.65
2017-11-13T23:57:13.615Z,130.57
2017-11-13T23:59:41.140Z,130.93
